sensor_id;sensor_type;location;lat;lon;timestamp;P1;durP1;ratioP1;P2;durP2;ratioP2
30337;SDS011;17143;51.888;5.408;2023-08-30T00:12:19;4.20;;;2.83;;
30337;SDS011;17143;51.888;5.408;2023-08-30T00:27:21;3.97;;;2.60;;
30337;SDS011;17143;51.888;5.408;2023-08-30T00:42:23;3.70;;;2.30;;
30337;SDS011;17143;51.888;5.408;2023-08-30T00:57:25;4.87;;;3.00;;
30337;SDS011;17143;51.888;5.408;2023-08-30T01:12:29;5.23;;;3.70;;
30337;SDS011;17143;51.888;5.408;2023-08-30T01:27:38;3.97;;;3.07;;
30337;SDS011;17143;51.888;5.408;2023-08-30T01:42:42;4.53;;;3.20;;
30337;SDS011;17143;51.888;5.408;2023-08-30T01:57:46;5.73;;;3.70;;
30337;SDS011;17143;51.888;5.408;2023-08-30T02:12:49;6.93;;;4.10;;
30337;SDS011;17143;51.888;5.408;2023-08-30T02:27:54;6.67;;;3.83;;
30337;SDS011;17143;51.888;5.408;2023-08-30T02:42:56;7.40;;;4.37;;
30337;SDS011;17143;51.888;5.408;2023-08-30T02:57:58;4.97;;;4.07;;
30337;SDS011;17143;51.888;5.408;2023-08-30T03:13:00;7.77;;;4.30;;
30337;SDS011;17143;51.888;5.408;2023-08-30T03:28:02;6.30;;;4.20;;
30337;SDS011;17143;51.888;5.408;2023-08-30T03:43:05;8.33;;;4.63;;
30337;SDS011;17143;51.888;5.408;2023-08-30T03:58:07;8.67;;;5.53;;
30337;SDS011;17143;51.888;5.408;2023-08-30T04:13:09;7.33;;;4.90;;
30337;SDS011;17143;51.888;5.408;2023-08-30T04:28:11;8.57;;;4.47;;
30337;SDS011;17143;51.888;5.408;2023-08-30T04:43:13;7.97;;;4.97;;
30337;SDS011;17143;51.888;5.408;2023-08-30T04:58:16;7.93;;;4.90;;
30337;SDS011;17143;51.888;5.408;2023-08-30T05:13:18;7.20;;;5.00;;
30337;SDS011;17143;51.888;5.408;2023-08-30T05:28:20;7.70;;;5.00;;
30337;SDS011;17143;51.888;5.408;2023-08-30T05:43:22;5.40;;;3.93;;
30337;SDS011;17143;51.888;5.408;2023-08-30T05:58:24;7.57;;;4.93;;
30337;SDS011;17143;51.888;5.408;2023-08-30T06:13:26;7.60;;;4.17;;
30337;SDS011;17143;51.888;5.408;2023-08-30T06:28:28;9.77;;;4.40;;
30337;SDS011;17143;51.888;5.408;2023-08-30T06:43:30;10.40;;;4.93;;
30337;SDS011;17143;51.888;5.408;2023-08-30T06:58:32;8.03;;;4.50;;
30337;SDS011;17143;51.888;5.408;2023-08-30T07:13:34;4.60;;;3.30;;
30337;SDS011;17143;51.888;5.408;2023-08-30T07:28:36;3.87;;;3.00;;
30337;SDS011;17143;51.888;5.408;2023-08-30T07:43:38;4.27;;;3.50;;
30337;SDS011;17143;51.888;5.408;2023-08-30T07:58:41;7.10;;;3.80;;
30337;SDS011;17143;51.888;5.408;2023-08-30T08:13:43;5.50;;;2.97;;
30337;SDS011;17143;51.888;5.408;2023-08-30T08:28:45;4.23;;;3.57;;
30337;SDS011;17143;51.888;5.408;2023-08-30T08:43:47;3.13;;;2.30;;
30337;SDS011;17143;51.888;5.408;2023-08-30T08:58:49;3.40;;;1.80;;
30337;SDS011;17143;51.888;5.408;2023-08-30T09:13:51;2.60;;;1.60;;
30337;SDS011;17143;51.888;5.408;2023-08-30T09:28:53;2.93;;;2.00;;
30337;SDS011;17143;51.888;5.408;2023-08-30T09:43:55;3.33;;;3.03;;
30337;SDS011;17143;51.888;5.408;2023-08-30T09:58:58;4.20;;;3.43;;
30337;SDS011;17143;51.888;5.408;2023-08-30T10:14:01;4.33;;;3.30;;
30337;SDS011;17143;51.888;5.408;2023-08-30T10:29:04;4.53;;;3.53;;
30337;SDS011;17143;51.888;5.408;2023-08-30T10:44:07;2.33;;;2.00;;
30337;SDS011;17143;51.888;5.408;2023-08-30T10:59:19;3.00;;;2.07;;
30337;SDS011;17143;51.888;5.408;2023-08-30T11:14:21;4.50;;;2.03;;
30337;SDS011;17143;51.888;5.408;2023-08-30T11:29:23;2.60;;;1.80;;
30337;SDS011;17143;51.888;5.408;2023-08-30T11:44:29;2.87;;;1.23;;
30337;SDS011;17143;51.888;5.408;2023-08-30T11:59:34;3.20;;;1.57;;
30337;SDS011;17143;51.888;5.408;2023-08-30T12:14:36;2.67;;;1.70;;
30337;SDS011;17143;51.888;5.408;2023-08-30T12:29:39;4.20;;;1.70;;
30337;SDS011;17143;51.888;5.408;2023-08-30T12:44:41;4.47;;;1.50;;
30337;SDS011;17143;51.888;5.408;2023-08-30T12:59:43;5.23;;;1.80;;
30337;SDS011;17143;51.888;5.408;2023-08-30T13:14:45;6.13;;;1.40;;
30337;SDS011;17143;51.888;5.408;2023-08-30T13:29:47;3.50;;;1.10;;
30337;SDS011;17143;51.888;5.408;2023-08-30T13:44:51;3.17;;;1.13;;
30337;SDS011;17143;51.888;5.408;2023-08-30T13:59:53;2.47;;;0.90;;
30337;SDS011;17143;51.888;5.408;2023-08-30T14:14:55;2.60;;;1.00;;
30337;SDS011;17143;51.888;5.408;2023-08-30T14:29:57;1.17;;;0.60;;
30337;SDS011;17143;51.888;5.408;2023-08-30T14:44:59;2.23;;;0.80;;
30337;SDS011;17143;51.888;5.408;2023-08-30T15:00:01;2.30;;;0.87;;
30337;SDS011;17143;51.888;5.408;2023-08-30T15:15:04;2.83;;;0.70;;
30337;SDS011;17143;51.888;5.408;2023-08-30T15:30:07;1.07;;;0.67;;
30337;SDS011;17143;51.888;5.408;2023-08-30T15:45:10;1.00;;;0.50;;
30337;SDS011;17143;51.888;5.408;2023-08-30T16:00:12;0.83;;;0.80;;
30337;SDS011;17143;51.888;5.408;2023-08-30T16:15:15;2.60;;;0.70;;
30337;SDS011;17143;51.888;5.408;2023-08-30T16:30:17;1.43;;;0.83;;
30337;SDS011;17143;51.888;5.408;2023-08-30T16:45:19;0.80;;;0.80;;
30337;SDS011;17143;51.888;5.408;2023-08-30T17:00:21;3.23;;;1.17;;
30337;SDS011;17143;51.888;5.408;2023-08-30T17:15:23;4.67;;;0.80;;
30337;SDS011;17143;51.888;5.408;2023-08-30T17:30:25;1.50;;;0.80;;
30337;SDS011;17143;51.888;5.408;2023-08-30T17:45:30;4.57;;;1.20;;
30337;SDS011;17143;51.888;5.408;2023-08-30T18:00:32;2.10;;;0.97;;
30337;SDS011;17143;51.888;5.408;2023-08-30T18:15:36;5.93;;;1.13;;
30337;SDS011;17143;51.888;5.408;2023-08-30T18:30:39;1.60;;;0.60;;
30337;SDS011;17143;51.888;5.408;2023-08-30T18:45:44;1.63;;;0.70;;
30337;SDS011;17143;51.888;5.408;2023-08-30T19:00:48;4.07;;;0.80;;
30337;SDS011;17143;51.888;5.408;2023-08-30T19:15:50;1.23;;;0.83;;
30337;SDS011;17143;51.888;5.408;2023-08-30T19:30:52;3.47;;;1.00;;
30337;SDS011;17143;51.888;5.408;2023-08-30T19:46:01;3.47;;;0.90;;
30337;SDS011;17143;51.888;5.408;2023-08-30T20:01:04;1.93;;;0.70;;
30337;SDS011;17143;51.888;5.408;2023-08-30T20:16:07;0.43;;;0.43;;
30337;SDS011;17143;51.888;5.408;2023-08-30T20:31:09;0.40;;;0.40;;
30337;SDS011;17143;51.888;5.408;2023-08-30T20:46:11;1.47;;;0.70;;
30337;SDS011;17143;51.888;5.408;2023-08-30T21:01:13;0.40;;;0.37;;
30337;SDS011;17143;51.888;5.408;2023-08-30T21:16:15;0.27;;;0.27;;
30337;SDS011;17143;51.888;5.408;2023-08-30T21:31:17;0.73;;;0.50;;
30337;SDS011;17143;51.888;5.408;2023-08-30T21:46:19;0.60;;;0.60;;
30337;SDS011;17143;51.888;5.408;2023-08-30T22:01:21;1.27;;;0.80;;
30337;SDS011;17143;51.888;5.408;2023-08-30T22:16:23;0.90;;;0.57;;
30337;SDS011;17143;51.888;5.408;2023-08-30T22:31:25;0.70;;;0.67;;
30337;SDS011;17143;51.888;5.408;2023-08-30T22:46:27;1.07;;;0.97;;
30337;SDS011;17143;51.888;5.408;2023-08-30T23:01:29;1.33;;;0.97;;
30337;SDS011;17143;51.888;5.408;2023-08-30T23:16:32;1.00;;;0.80;;
30337;SDS011;17143;51.888;5.408;2023-08-30T23:31:34;1.70;;;0.70;;
30337;SDS011;17143;51.888;5.408;2023-08-30T23:46:36;1.67;;;0.90;;
